Algona, Washington
Current Conditions -  °F | °C
As of 11:53 AM on Thursday 27 Nov 2014 (Local Time) from KSEA Reporting Station
Broken Clouds Broken Clouds  
Wind Chill: 55°   Ceiling: 1200
Heat Index: 55°   Visibility: 10mi
Dew Point: 52°   Wind: 16mph
Humidity: 89%   Direction: 190°S
Pressure: 29.81"   Gusts: NA
Location:  47.31°N, 122.266°W
Report Text: KSEA 271953Z 19014KT 10SM SCT008 BKN012 BKN035 13/11 A2981 RMK AO2 PK WND 21027/1903 RAE20 SLP102 P0001 T01280111
Loading
Personal Weather Stations






























Interactive Weather Map New forecast layout! Learn more

10-Day Weather Forecast

Advertisements
Track Severe Weather on mobile